sensor_id;sensor_type;location;lat;lon;timestamp;P1;durP1;ratioP1;P2;durP2;ratioP2
28304;SDS011;15569;42.652;23.040;2023-05-07T00:01:37;28.55;;;16.13;;
28304;SDS011;15569;42.652;23.040;2023-05-07T00:04:03;26.77;;;15.25;;
28304;SDS011;15569;42.652;23.040;2023-05-07T00:06:28;24.55;;;15.63;;
28304;SDS011;15569;42.652;23.040;2023-05-07T00:08:55;25.70;;;17.83;;
28304;SDS011;15569;42.652;23.040;2023-05-07T00:11:21;25.65;;;17.35;;
28304;SDS011;15569;42.652;23.040;2023-05-07T00:13:47;29.23;;;16.48;;
28304;SDS011;15569;42.652;23.040;2023-05-07T00:16:13;27.33;;;16.05;;
28304;SDS011;15569;42.652;23.040;2023-05-07T00:18:38;27.90;;;16.17;;
28304;SDS011;15569;42.652;23.040;2023-05-07T00:21:03;20.15;;;13.25;;
28304;SDS011;15569;42.652;23.040;2023-05-07T00:23:29;31.95;;;17.38;;
28304;SDS011;15569;42.652;23.040;2023-05-07T00:25:55;28.00;;;16.77;;
28304;SDS011;15569;42.652;23.040;2023-05-07T00:28:21;28.58;;;13.75;;
28304;SDS011;15569;42.652;23.040;2023-05-07T00:30:46;26.98;;;17.23;;
28304;SDS011;15569;42.652;23.040;2023-05-07T00:33:12;18.67;;;12.27;;
28304;SDS011;15569;42.652;23.040;2023-05-07T00:35:37;20.58;;;15.90;;
28304;SDS011;15569;42.652;23.040;2023-05-07T00:38:02;29.67;;;19.70;;
28304;SDS011;15569;42.652;23.040;2023-05-07T00:40:28;26.05;;;16.27;;
28304;SDS011;15569;42.652;23.040;2023-05-07T00:42:53;21.55;;;15.55;;
28304;SDS011;15569;42.652;23.040;2023-05-07T00:45:22;19.67;;;13.40;;
28304;SDS011;15569;42.652;23.040;2023-05-07T00:47:51;21.95;;;18.08;;
28304;SDS011;15569;42.652;23.040;2023-05-07T00:50:19;21.95;;;13.75;;
28304;SDS011;15569;42.652;23.040;2023-05-07T00:52:45;24.38;;;16.98;;
28304;SDS011;15569;42.652;23.040;2023-05-07T00:55:10;26.92;;;16.42;;
28304;SDS011;15569;42.652;23.040;2023-05-07T00:57:38;21.88;;;16.15;;
28304;SDS011;15569;42.652;23.040;2023-05-07T01:00:05;27.90;;;19.10;;
28304;SDS011;15569;42.652;23.040;2023-05-07T01:02:32;24.95;;;15.23;;
28304;SDS011;15569;42.652;23.040;2023-05-07T01:04:58;31.70;;;17.80;;
28304;SDS011;15569;42.652;23.040;2023-05-07T01:07:25;27.00;;;16.70;;
28304;SDS011;15569;42.652;23.040;2023-05-07T01:09:51;27.65;;;18.55;;
28304;SDS011;15569;42.652;23.040;2023-05-07T01:12:17;27.85;;;18.52;;
28304;SDS011;15569;42.652;23.040;2023-05-07T01:14:42;29.08;;;17.50;;
28304;SDS011;15569;42.652;23.040;2023-05-07T01:17:07;21.80;;;15.52;;
28304;SDS011;15569;42.652;23.040;2023-05-07T01:19:33;24.85;;;16.10;;
28304;SDS011;15569;42.652;23.040;2023-05-07T01:22:03;29.60;;;16.20;;
28304;SDS011;15569;42.652;23.040;2023-05-07T01:24:31;18.70;;;14.60;;
28304;SDS011;15569;42.652;23.040;2023-05-07T01:26:57;23.30;;;16.20;;
28304;SDS011;15569;42.652;23.040;2023-05-07T01:29:22;23.00;;;15.38;;
28304;SDS011;15569;42.652;23.040;2023-05-07T01:31:48;21.73;;;15.93;;
28304;SDS011;15569;42.652;23.040;2023-05-07T01:34:15;21.27;;;15.63;;
28304;SDS011;15569;42.652;23.040;2023-05-07T01:36:43;18.58;;;13.48;;
28304;SDS011;15569;42.652;23.040;2023-05-07T01:39:09;18.45;;;13.85;;
28304;SDS011;15569;42.652;23.040;2023-05-07T01:41:35;21.52;;;11.95;;
28304;SDS011;15569;42.652;23.040;2023-05-07T01:44:01;21.27;;;14.30;;
28304;SDS011;15569;42.652;23.040;2023-05-07T01:46:28;21.70;;;14.63;;
28304;SDS011;15569;42.652;23.040;2023-05-07T01:48:54;20.35;;;13.63;;
28304;SDS011;15569;42.652;23.040;2023-05-07T01:51:21;20.35;;;13.82;;
28304;SDS011;15569;42.652;23.040;2023-05-07T01:53:47;17.25;;;11.23;;
28304;SDS011;15569;42.652;23.040;2023-05-07T01:56:15;17.95;;;10.60;;
28304;SDS011;15569;42.652;23.040;2023-05-07T01:58:42;17.63;;;12.00;;
28304;SDS011;15569;42.652;23.040;2023-05-07T02:01:07;17.73;;;12.45;;
28304;SDS011;15569;42.652;23.040;2023-05-07T02:03:33;19.02;;;13.93;;
28304;SDS011;15569;42.652;23.040;2023-05-07T02:05:58;18.70;;;11.85;;
28304;SDS011;15569;42.652;23.040;2023-05-07T02:08:23;19.60;;;10.77;;
28304;SDS011;15569;42.652;23.040;2023-05-07T02:10:49;13.05;;;10.23;;
28304;SDS011;15569;42.652;23.040;2023-05-07T02:13:15;18.05;;;11.85;;
28304;SDS011;15569;42.652;23.040;2023-05-07T02:15:40;13.65;;;10.25;;
28304;SDS011;15569;42.652;23.040;2023-05-07T02:18:07;15.52;;;10.70;;
28304;SDS011;15569;42.652;23.040;2023-05-07T02:20:34;17.33;;;11.27;;
28304;SDS011;15569;42.652;23.040;2023-05-07T02:22:59;12.88;;;10.45;;
28304;SDS011;15569;42.652;23.040;2023-05-07T02:25:25;15.82;;;10.23;;
28304;SDS011;15569;42.652;23.040;2023-05-07T02:27:51;20.15;;;11.65;;
28304;SDS011;15569;42.652;23.040;2023-05-07T02:30:16;12.68;;;10.25;;
28304;SDS011;15569;42.652;23.040;2023-05-07T02:32:42;14.85;;;10.07;;
28304;SDS011;15569;42.652;23.040;2023-05-07T02:35:07;21.65;;;11.40;;
28304;SDS011;15569;42.652;23.040;2023-05-07T02:37:33;15.77;;;11.13;;
28304;SDS011;15569;42.652;23.040;2023-05-07T02:39:58;17.23;;;10.10;;
28304;SDS011;15569;42.652;23.040;2023-05-07T02:42:23;17.27;;;11.23;;
28304;SDS011;15569;42.652;23.040;2023-05-07T02:44:49;25.45;;;10.43;;
28304;SDS011;15569;42.652;23.040;2023-05-07T02:47:14;17.40;;;10.77;;
28304;SDS011;15569;42.652;23.040;2023-05-07T02:49:40;15.40;;;10.18;;
28304;SDS011;15569;42.652;23.040;2023-05-07T02:52:06;16.77;;;10.88;;
28304;SDS011;15569;42.652;23.040;2023-05-07T02:54:32;15.32;;;10.27;;
28304;SDS011;15569;42.652;23.040;2023-05-07T02:56:57;19.83;;;9.63;;
28304;SDS011;15569;42.652;23.040;2023-05-07T02:59:23;16.50;;;11.75;;
28304;SDS011;15569;42.652;23.040;2023-05-07T03:01:48;21.63;;;11.23;;
28304;SDS011;15569;42.652;23.040;2023-05-07T03:04:14;23.10;;;11.13;;
28304;SDS011;15569;42.652;23.040;2023-05-07T03:06:39;19.17;;;10.85;;
28304;SDS011;15569;42.652;23.040;2023-05-07T03:09:05;14.80;;;9.98;;
28304;SDS011;15569;42.652;23.040;2023-05-07T03:11:30;23.77;;;11.73;;
28304;SDS011;15569;42.652;23.040;2023-05-07T03:13:56;20.67;;;9.77;;
28304;SDS011;15569;42.652;23.040;2023-05-07T03:16:21;18.45;;;10.23;;
28304;SDS011;15569;42.652;23.040;2023-05-07T03:18:46;23.13;;;10.52;;
28304;SDS011;15569;42.652;23.040;2023-05-07T03:21:12;22.52;;;10.00;;
28304;SDS011;15569;42.652;23.040;2023-05-07T03:23:37;20.20;;;9.13;;
28304;SDS011;15569;42.652;23.040;2023-05-07T03:26:03;17.45;;;9.43;;
28304;SDS011;15569;42.652;23.040;2023-05-07T03:28:28;15.02;;;9.43;;
28304;SDS011;15569;42.652;23.040;2023-05-07T03:30:53;19.83;;;9.73;;
28304;SDS011;15569;42.652;23.040;2023-05-07T03:33:19;21.23;;;9.45;;
28304;SDS011;15569;42.652;23.040;2023-05-07T03:35:44;25.75;;;11.27;;
28304;SDS011;15569;42.652;23.040;2023-05-07T03:40:55;22.90;;;11.23;;
28304;SDS011;15569;42.652;23.040;2023-05-07T03:43:21;21.55;;;11.07;;
28304;SDS011;15569;42.652;23.040;2023-05-07T03:45:46;18.13;;;10.38;;
28304;SDS011;15569;42.652;23.040;2023-05-07T03:48:12;20.85;;;11.55;;
28304;SDS011;15569;42.652;23.040;2023-05-07T03:50:37;27.15;;;13.18;;
28304;SDS011;15569;42.652;23.040;2023-05-07T03:53:03;21.70;;;10.75;;
28304;SDS011;15569;42.652;23.040;2023-05-07T03:55:28;18.08;;;9.73;;
28304;SDS011;15569;42.652;23.040;2023-05-07T03:57:54;21.52;;;10.98;;
28304;SDS011;15569;42.652;23.040;2023-05-07T04:00:19;19.05;;;11.00;;
28304;SDS011;15569;42.652;23.040;2023-05-07T04:02:46;27.20;;;12.27;;
28304;SDS011;15569;42.652;23.040;2023-05-07T04:05:11;25.85;;;10.20;;
28304;SDS011;15569;42.652;23.040;2023-05-07T04:07:38;22.08;;;12.55;;
28304;SDS011;15569;42.652;23.040;2023-05-07T04:10:03;20.00;;;9.23;;
28304;SDS011;15569;42.652;23.040;2023-05-07T04:12:29;18.20;;;10.77;;
28304;SDS011;15569;42.652;23.040;2023-05-07T04:14:55;26.60;;;11.50;;
28304;SDS011;15569;42.652;23.040;2023-05-07T04:17:20;19.95;;;10.95;;
28304;SDS011;15569;42.652;23.040;2023-05-07T04:19:46;21.48;;;10.35;;
28304;SDS011;15569;42.652;23.040;2023-05-07T04:22:11;19.55;;;11.35;;
28304;SDS011;15569;42.652;23.040;2023-05-07T04:24:37;28.08;;;10.60;;
28304;SDS011;15569;42.652;23.040;2023-05-07T04:27:02;17.17;;;10.13;;
28304;SDS011;15569;42.652;23.040;2023-05-07T04:29:27;23.20;;;10.35;;
28304;SDS011;15569;42.652;23.040;2023-05-07T04:31:53;19.48;;;11.27;;
28304;SDS011;15569;42.652;23.040;2023-05-07T04:34:20;19.02;;;10.38;;
28304;SDS011;15569;42.652;23.040;2023-05-07T04:36:46;21.38;;;12.35;;
28304;SDS011;15569;42.652;23.040;2023-05-07T04:39:11;17.35;;;11.13;;
28304;SDS011;15569;42.652;23.040;2023-05-07T04:41:37;20.48;;;11.27;;
28304;SDS011;15569;42.652;23.040;2023-05-07T04:44:02;21.10;;;10.10;;
28304;SDS011;15569;42.652;23.040;2023-05-07T04:46:29;24.27;;;11.32;;
28304;SDS011;15569;42.652;23.040;2023-05-07T04:48:54;19.10;;;11.48;;
28304;SDS011;15569;42.652;23.040;2023-05-07T04:51:19;25.85;;;11.48;;
28304;SDS011;15569;42.652;23.040;2023-05-07T04:53:45;17.10;;;10.23;;
28304;SDS011;15569;42.652;23.040;2023-05-07T04:56:10;28.58;;;10.77;;
28304;SDS011;15569;42.652;23.040;2023-05-07T04:58:36;29.08;;;12.63;;
28304;SDS011;15569;42.652;23.040;2023-05-07T05:01:01;27.90;;;11.30;;
28304;SDS011;15569;42.652;23.040;2023-05-07T05:03:27;29.80;;;11.43;;
28304;SDS011;15569;42.652;23.040;2023-05-07T05:05:52;26.73;;;10.30;;
28304;SDS011;15569;42.652;23.040;2023-05-07T05:08:18;39.20;;;10.40;;
28304;SDS011;15569;42.652;23.040;2023-05-07T05:10:43;20.70;;;9.68;;
28304;SDS011;15569;42.652;23.040;2023-05-07T05:13:09;19.10;;;9.80;;
28304;SDS011;15569;42.652;23.040;2023-05-07T05:15:37;28.10;;;10.13;;
28304;SDS011;15569;42.652;23.040;2023-05-07T05:18:03;26.20;;;10.35;;
28304;SDS011;15569;42.652;23.040;2023-05-07T05:20:28;26.00;;;9.88;;
28304;SDS011;15569;42.652;23.040;2023-05-07T05:22:54;25.42;;;10.10;;
28304;SDS011;15569;42.652;23.040;2023-05-07T05:25:20;22.23;;;9.55;;
28304;SDS011;15569;42.652;23.040;2023-05-07T05:27:45;19.40;;;9.70;;
28304;SDS011;15569;42.652;23.040;2023-05-07T05:30:11;20.25;;;9.75;;
28304;SDS011;15569;42.652;23.040;2023-05-07T05:32:36;19.50;;;9.45;;
28304;SDS011;15569;42.652;23.040;2023-05-07T05:35:02;18.88;;;9.07;;
28304;SDS011;15569;42.652;23.040;2023-05-07T05:37:27;22.00;;;10.38;;
28304;SDS011;15569;42.652;23.040;2023-05-07T05:42:40;25.77;;;9.18;;
28304;SDS011;15569;42.652;23.040;2023-05-07T05:45:06;20.05;;;9.55;;
28304;SDS011;15569;42.652;23.040;2023-05-07T05:47:32;16.63;;;8.75;;
28304;SDS011;15569;42.652;23.040;2023-05-07T05:49:57;26.52;;;10.45;;
28304;SDS011;15569;42.652;23.040;2023-05-07T05:52:23;24.95;;;9.65;;
28304;SDS011;15569;42.652;23.040;2023-05-07T05:54:51;28.23;;;11.18;;
28304;SDS011;15569;42.652;23.040;2023-05-07T05:57:16;19.73;;;9.32;;
28304;SDS011;15569;42.652;23.040;2023-05-07T05:59:42;20.65;;;8.95;;
28304;SDS011;15569;42.652;23.040;2023-05-07T06:02:07;18.88;;;8.55;;
28304;SDS011;15569;42.652;23.040;2023-05-07T06:04:33;14.95;;;8.02;;
28304;SDS011;15569;42.652;23.040;2023-05-07T06:06:58;18.60;;;8.68;;
28304;SDS011;15569;42.652;23.040;2023-05-07T06:09:23;19.98;;;7.50;;
28304;SDS011;15569;42.652;23.040;2023-05-07T06:11:49;31.42;;;8.75;;
28304;SDS011;15569;42.652;23.040;2023-05-07T06:14:14;25.02;;;6.97;;
28304;SDS011;15569;42.652;23.040;2023-05-07T06:16:40;22.40;;;9.25;;
28304;SDS011;15569;42.652;23.040;2023-05-07T06:19:05;17.65;;;8.32;;
28304;SDS011;15569;42.652;23.040;2023-05-07T06:21:30;18.98;;;8.15;;
28304;SDS011;15569;42.652;23.040;2023-05-07T06:23:56;33.72;;;8.68;;
28304;SDS011;15569;42.652;23.040;2023-05-07T06:26:21;24.15;;;8.15;;
28304;SDS011;15569;42.652;23.040;2023-05-07T06:28:47;16.75;;;7.22;;
28304;SDS011;15569;42.652;23.040;2023-05-07T06:33:39;16.98;;;8.48;;
28304;SDS011;15569;42.652;23.040;2023-05-07T06:36:05;16.10;;;7.43;;
28304;SDS011;15569;42.652;23.040;2023-05-07T06:38:31;17.67;;;7.85;;
28304;SDS011;15569;42.652;23.040;2023-05-07T06:40:56;12.88;;;6.93;;
28304;SDS011;15569;42.652;23.040;2023-05-07T06:43:22;12.70;;;7.45;;
28304;SDS011;15569;42.652;23.040;2023-05-07T06:45:47;15.13;;;6.28;;
28304;SDS011;15569;42.652;23.040;2023-05-07T06:48:13;13.63;;;6.75;;
28304;SDS011;15569;42.652;23.040;2023-05-07T06:50:38;14.02;;;6.47;;
28304;SDS011;15569;42.652;23.040;2023-05-07T06:53:03;15.32;;;6.63;;
28304;SDS011;15569;42.652;23.040;2023-05-07T06:55:29;13.00;;;6.95;;
28304;SDS011;15569;42.652;23.040;2023-05-07T06:57:54;12.23;;;5.60;;
28304;SDS011;15569;42.652;23.040;2023-05-07T07:00:20;13.45;;;5.47;;
28304;SDS011;15569;42.652;23.040;2023-05-07T07:02:45;9.70;;;4.85;;
28304;SDS011;15569;42.652;23.040;2023-05-07T07:05:10;11.43;;;5.47;;
28304;SDS011;15569;42.652;23.040;2023-05-07T07:07:36;11.93;;;6.07;;
28304;SDS011;15569;42.652;23.040;2023-05-07T07:10:01;9.60;;;5.22;;
28304;SDS011;15569;42.652;23.040;2023-05-07T07:12:29;8.48;;;5.65;;
28304;SDS011;15569;42.652;23.040;2023-05-07T07:14:54;8.60;;;5.40;;
28304;SDS011;15569;42.652;23.040;2023-05-07T07:17:20;7.25;;;4.65;;
28304;SDS011;15569;42.652;23.040;2023-05-07T07:19:45;7.55;;;4.53;;
28304;SDS011;15569;42.652;23.040;2023-05-07T07:22:11;9.00;;;4.32;;
28304;SDS011;15569;42.652;23.040;2023-05-07T07:24:36;9.55;;;4.80;;
28304;SDS011;15569;42.652;23.040;2023-05-07T07:27:02;12.80;;;5.45;;
28304;SDS011;15569;42.652;23.040;2023-05-07T07:29:27;11.32;;;5.93;;
28304;SDS011;15569;42.652;23.040;2023-05-07T07:31:53;12.35;;;7.15;;
28304;SDS011;15569;42.652;23.040;2023-05-07T07:34:18;13.00;;;5.25;;
28304;SDS011;15569;42.652;23.040;2023-05-07T07:36:43;9.18;;;5.43;;
28304;SDS011;15569;42.652;23.040;2023-05-07T07:39:09;21.20;;;11.95;;
28304;SDS011;15569;42.652;23.040;2023-05-07T07:44:20;14.60;;;7.28;;
28304;SDS011;15569;42.652;23.040;2023-05-07T07:46:45;10.35;;;4.93;;
28304;SDS011;15569;42.652;23.040;2023-05-07T07:49:10;8.75;;;4.63;;
28304;SDS011;15569;42.652;23.040;2023-05-07T07:51:36;7.07;;;4.90;;
28304;SDS011;15569;42.652;23.040;2023-05-07T07:54:01;7.40;;;4.60;;
28304;SDS011;15569;42.652;23.040;2023-05-07T07:56:27;8.65;;;5.05;;
28304;SDS011;15569;42.652;23.040;2023-05-07T07:58:53;11.60;;;4.63;;
28304;SDS011;15569;42.652;23.040;2023-05-07T08:01:18;9.05;;;3.70;;
28304;SDS011;15569;42.652;23.040;2023-05-07T08:03:43;5.15;;;4.10;;
28304;SDS011;15569;42.652;23.040;2023-05-07T08:06:09;7.05;;;3.85;;
28304;SDS011;15569;42.652;23.040;2023-05-07T08:08:34;6.50;;;4.28;;
28304;SDS011;15569;42.652;23.040;2023-05-07T08:11:00;6.25;;;4.50;;
28304;SDS011;15569;42.652;23.040;2023-05-07T08:13:26;4.93;;;4.10;;
28304;SDS011;15569;42.652;23.040;2023-05-07T08:15:51;5.55;;;4.05;;
28304;SDS011;15569;42.652;23.040;2023-05-07T08:18:16;6.95;;;3.78;;
28304;SDS011;15569;42.652;23.040;2023-05-07T08:20:42;3.83;;;3.33;;
28304;SDS011;15569;42.652;23.040;2023-05-07T08:23:07;9.02;;;3.65;;
28304;SDS011;15569;42.652;23.040;2023-05-07T08:25:33;8.90;;;3.72;;
28304;SDS011;15569;42.652;23.040;2023-05-07T08:27:59;7.55;;;4.00;;
28304;SDS011;15569;42.652;23.040;2023-05-07T08:30:24;5.10;;;3.75;;
28304;SDS011;15569;42.652;23.040;2023-05-07T08:32:50;6.45;;;4.00;;
28304;SDS011;15569;42.652;23.040;2023-05-07T08:35:15;6.15;;;3.88;;
28304;SDS011;15569;42.652;23.040;2023-05-07T08:37:41;5.18;;;3.95;;
28304;SDS011;15569;42.652;23.040;2023-05-07T08:40:06;6.47;;;3.90;;
28304;SDS011;15569;42.652;23.040;2023-05-07T08:42:34;6.18;;;4.30;;
28304;SDS011;15569;42.652;23.040;2023-05-07T08:45:01;5.25;;;3.22;;
28304;SDS011;15569;42.652;23.040;2023-05-07T08:47:32;7.97;;;4.05;;
28304;SDS011;15569;42.652;23.040;2023-05-07T08:50:09;8.02;;;3.88;;
28304;SDS011;15569;42.652;23.040;2023-05-07T08:52:35;6.97;;;4.00;;
28304;SDS011;15569;42.652;23.040;2023-05-07T08:55:02;5.72;;;3.63;;
28304;SDS011;15569;42.652;23.040;2023-05-07T08:57:28;7.95;;;4.25;;
28304;SDS011;15569;42.652;23.040;2023-05-07T08:59:53;8.65;;;4.07;;
28304;SDS011;15569;42.652;23.040;2023-05-07T09:02:19;7.03;;;3.92;;
28304;SDS011;15569;42.652;23.040;2023-05-07T09:04:44;8.35;;;5.40;;
28304;SDS011;15569;42.652;23.040;2023-05-07T09:07:10;6.30;;;4.40;;
28304;SDS011;15569;42.652;23.040;2023-05-07T09:09:35;6.65;;;4.53;;
28304;SDS011;15569;42.652;23.040;2023-05-07T09:12:02;5.85;;;3.97;;
28304;SDS011;15569;42.652;23.040;2023-05-07T09:14:28;5.93;;;4.30;;
28304;SDS011;15569;42.652;23.040;2023-05-07T09:16:55;4.65;;;3.47;;
28304;SDS011;15569;42.652;23.040;2023-05-07T09:19:24;5.70;;;3.45;;
28304;SDS011;15569;42.652;23.040;2023-05-07T09:24:23;8.38;;;4.38;;
28304;SDS011;15569;42.652;23.040;2023-05-07T09:26:49;7.20;;;3.65;;
28304;SDS011;15569;42.652;23.040;2023-05-07T09:29:15;6.70;;;4.07;;
28304;SDS011;15569;42.652;23.040;2023-05-07T09:31:40;4.18;;;3.67;;
28304;SDS011;15569;42.652;23.040;2023-05-07T09:34:06;4.65;;;3.53;;
28304;SDS011;15569;42.652;23.040;2023-05-07T09:36:31;5.22;;;3.80;;
28304;SDS011;15569;42.652;23.040;2023-05-07T09:39:00;5.90;;;3.08;;
28304;SDS011;15569;42.652;23.040;2023-05-07T09:41:26;9.02;;;3.60;;
28304;SDS011;15569;42.652;23.040;2023-05-07T09:46:42;4.25;;;3.45;;
28304;SDS011;15569;42.652;23.040;2023-05-07T09:49:11;5.80;;;3.45;;
28304;SDS011;15569;42.652;23.040;2023-05-07T09:51:45;6.40;;;3.03;;
28304;SDS011;15569;42.652;23.040;2023-05-07T09:54:14;4.30;;;3.80;;
28304;SDS011;15569;42.652;23.040;2023-05-07T09:56:40;5.03;;;3.58;;
28304;SDS011;15569;42.652;23.040;2023-05-07T09:59:08;5.05;;;3.30;;
28304;SDS011;15569;42.652;23.040;2023-05-07T10:01:37;8.55;;;3.70;;
28304;SDS011;15569;42.652;23.040;2023-05-07T10:04:05;4.63;;;3.00;;
28304;SDS011;15569;42.652;23.040;2023-05-07T10:06:33;7.15;;;3.60;;
28304;SDS011;15569;42.652;23.040;2023-05-07T10:08:59;3.72;;;2.75;;
28304;SDS011;15569;42.652;23.040;2023-05-07T10:11:25;3.83;;;2.72;;
28304;SDS011;15569;42.652;23.040;2023-05-07T10:13:51;2.65;;;2.45;;
28304;SDS011;15569;42.652;23.040;2023-05-07T10:16:17;4.38;;;3.15;;
28304;SDS011;15569;42.652;23.040;2023-05-07T10:18:43;6.85;;;3.05;;
28304;SDS011;15569;42.652;23.040;2023-05-07T10:21:19;3.00;;;2.55;;
28304;SDS011;15569;42.652;23.040;2023-05-07T10:23:50;4.18;;;2.92;;
28304;SDS011;15569;42.652;23.040;2023-05-07T10:26:22;3.10;;;2.80;;
28304;SDS011;15569;42.652;23.040;2023-05-07T10:28:56;3.78;;;2.80;;
28304;SDS011;15569;42.652;23.040;2023-05-07T10:31:48;3.67;;;2.65;;
28304;SDS011;15569;42.652;23.040;2023-05-07T10:34:16;3.42;;;2.30;;
28304;SDS011;15569;42.652;23.040;2023-05-07T10:36:47;2.83;;;2.55;;
28304;SDS011;15569;42.652;23.040;2023-05-07T10:39:15;4.20;;;2.80;;
28304;SDS011;15569;42.652;23.040;2023-05-07T10:41:40;3.85;;;3.05;;
28304;SDS011;15569;42.652;23.040;2023-05-07T10:44:06;3.15;;;2.65;;
28304;SDS011;15569;42.652;23.040;2023-05-07T10:46:31;3.17;;;2.70;;
28304;SDS011;15569;42.652;23.040;2023-05-07T10:51:30;3.30;;;2.65;;
28304;SDS011;15569;42.652;23.040;2023-05-07T10:56:37;4.00;;;3.13;;
28304;SDS011;15569;42.652;23.040;2023-05-07T11:04:24;5.47;;;3.65;;
28304;SDS011;15569;42.652;23.040;2023-05-07T11:12:16;4.30;;;3.30;;
28304;SDS011;15569;42.652;23.040;2023-05-07T11:17:07;3.40;;;3.03;;
28304;SDS011;15569;42.652;23.040;2023-05-07T11:19:50;5.35;;;3.10;;
28304;SDS011;15569;42.652;23.040;2023-05-07T11:22:35;4.32;;;3.10;;
28304;SDS011;15569;42.652;23.040;2023-05-07T11:25:05;4.63;;;3.47;;
28304;SDS011;15569;42.652;23.040;2023-05-07T11:27:32;3.53;;;3.03;;
28304;SDS011;15569;42.652;23.040;2023-05-07T11:29:58;4.63;;;3.40;;
28304;SDS011;15569;42.652;23.040;2023-05-07T11:32:24;3.22;;;2.92;;
28304;SDS011;15569;42.652;23.040;2023-05-07T11:34:53;4.50;;;3.28;;
28304;SDS011;15569;42.652;23.040;2023-05-07T11:37:20;7.45;;;3.05;;
28304;SDS011;15569;42.652;23.040;2023-05-07T11:39:46;5.20;;;2.88;;
28304;SDS011;15569;42.652;23.040;2023-05-07T11:42:32;5.97;;;3.05;;
28304;SDS011;15569;42.652;23.040;2023-05-07T11:44:59;4.43;;;2.90;;
28304;SDS011;15569;42.652;23.040;2023-05-07T11:47:25;4.63;;;3.40;;
28304;SDS011;15569;42.652;23.040;2023-05-07T11:49:53;6.40;;;3.13;;
28304;SDS011;15569;42.652;23.040;2023-05-07T11:52:21;5.05;;;3.05;;
28304;SDS011;15569;42.652;23.040;2023-05-07T11:54:50;4.05;;;3.10;;
28304;SDS011;15569;42.652;23.040;2023-05-07T11:57:17;3.90;;;2.90;;
28304;SDS011;15569;42.652;23.040;2023-05-07T11:59:43;4.53;;;2.80;;
28304;SDS011;15569;42.652;23.040;2023-05-07T12:02:15;3.72;;;3.10;;
28304;SDS011;15569;42.652;23.040;2023-05-07T12:04:40;4.68;;;3.55;;
28304;SDS011;15569;42.652;23.040;2023-05-07T12:07:15;5.38;;;3.63;;
28304;SDS011;15569;42.652;23.040;2023-05-07T12:09:41;2.88;;;2.67;;
28304;SDS011;15569;42.652;23.040;2023-05-07T12:12:07;3.45;;;3.15;;
28304;SDS011;15569;42.652;23.040;2023-05-07T12:14:37;3.58;;;3.05;;
28304;SDS011;15569;42.652;23.040;2023-05-07T12:17:09;4.03;;;2.80;;
28304;SDS011;15569;42.652;23.040;2023-05-07T12:19:37;3.83;;;3.05;;
28304;SDS011;15569;42.652;23.040;2023-05-07T12:22:03;4.65;;;2.92;;
28304;SDS011;15569;42.652;23.040;2023-05-07T12:24:41;5.57;;;3.50;;
28304;SDS011;15569;42.652;23.040;2023-05-07T12:27:10;3.40;;;3.10;;
28304;SDS011;15569;42.652;23.040;2023-05-07T12:29:35;5.70;;;3.03;;
28304;SDS011;15569;42.652;23.040;2023-05-07T12:32:03;4.22;;;2.80;;
28304;SDS011;15569;42.652;23.040;2023-05-07T12:34:29;4.15;;;3.03;;
28304;SDS011;15569;42.652;23.040;2023-05-07T12:36:56;6.50;;;3.15;;
28304;SDS011;15569;42.652;23.040;2023-05-07T12:39:22;3.90;;;3.05;;
28304;SDS011;15569;42.652;23.040;2023-05-07T12:41:54;3.53;;;2.90;;
28304;SDS011;15569;42.652;23.040;2023-05-07T12:44:23;3.55;;;2.85;;
28304;SDS011;15569;42.652;23.040;2023-05-07T12:49:35;3.92;;;3.00;;
28304;SDS011;15569;42.652;23.040;2023-05-07T12:52:03;4.60;;;3.30;;
28304;SDS011;15569;42.652;23.040;2023-05-07T12:54:30;4.03;;;3.15;;
28304;SDS011;15569;42.652;23.040;2023-05-07T12:57:04;11.93;;;3.03;;
28304;SDS011;15569;42.652;23.040;2023-05-07T12:59:32;6.40;;;3.40;;
28304;SDS011;15569;42.652;23.040;2023-05-07T13:01:57;4.32;;;2.90;;
28304;SDS011;15569;42.652;23.040;2023-05-07T13:04:24;5.15;;;3.10;;
28304;SDS011;15569;42.652;23.040;2023-05-07T13:06:50;5.47;;;3.35;;
28304;SDS011;15569;42.652;23.040;2023-05-07T13:09:15;3.58;;;3.03;;
28304;SDS011;15569;42.652;23.040;2023-05-07T13:11:40;4.07;;;2.75;;
28304;SDS011;15569;42.652;23.040;2023-05-07T13:14:06;6.40;;;2.75;;
28304;SDS011;15569;42.652;23.040;2023-05-07T13:16:31;3.80;;;3.10;;
28304;SDS011;15569;42.652;23.040;2023-05-07T13:18:56;5.35;;;2.70;;
28304;SDS011;15569;42.652;23.040;2023-05-07T13:21:22;5.38;;;3.22;;
28304;SDS011;15569;42.652;23.040;2023-05-07T13:23:47;4.50;;;2.60;;
28304;SDS011;15569;42.652;23.040;2023-05-07T13:26:12;3.20;;;2.80;;
28304;SDS011;15569;42.652;23.040;2023-05-07T13:28:38;6.82;;;3.25;;
28304;SDS011;15569;42.652;23.040;2023-05-07T13:31:03;5.40;;;3.22;;
28304;SDS011;15569;42.652;23.040;2023-05-07T13:33:28;3.35;;;2.90;;
28304;SDS011;15569;42.652;23.040;2023-05-07T13:35:54;3.25;;;2.92;;
28304;SDS011;15569;42.652;23.040;2023-05-07T13:38:22;3.35;;;3.05;;
28304;SDS011;15569;42.652;23.040;2023-05-07T13:40:47;4.10;;;3.10;;
28304;SDS011;15569;42.652;23.040;2023-05-07T13:43:13;11.32;;;2.90;;
28304;SDS011;15569;42.652;23.040;2023-05-07T13:45:39;3.92;;;3.20;;
28304;SDS011;15569;42.652;23.040;2023-05-07T13:48:05;4.82;;;3.00;;
28304;SDS011;15569;42.652;23.040;2023-05-07T13:50:30;5.13;;;3.17;;
28304;SDS011;15569;42.652;23.040;2023-05-07T13:52:56;5.13;;;3.00;;
28304;SDS011;15569;42.652;23.040;2023-05-07T13:55:21;11.07;;;3.30;;
28304;SDS011;15569;42.652;23.040;2023-05-07T13:57:54;5.10;;;2.78;;
28304;SDS011;15569;42.652;23.040;2023-05-07T14:00:23;5.53;;;3.97;;
28304;SDS011;15569;42.652;23.040;2023-05-07T14:02:50;4.38;;;3.33;;
28304;SDS011;15569;42.652;23.040;2023-05-07T14:05:15;4.63;;;3.03;;
28304;SDS011;15569;42.652;23.040;2023-05-07T14:07:41;11.73;;;3.83;;
28304;SDS011;15569;42.652;23.040;2023-05-07T14:10:06;9.10;;;3.30;;
28304;SDS011;15569;42.652;23.040;2023-05-07T14:12:32;5.22;;;3.42;;
28304;SDS011;15569;42.652;23.040;2023-05-07T14:14:58;7.60;;;3.03;;
28304;SDS011;15569;42.652;23.040;2023-05-07T14:17:23;3.75;;;3.10;;
28304;SDS011;15569;42.652;23.040;2023-05-07T14:19:51;3.22;;;2.83;;
28304;SDS011;15569;42.652;23.040;2023-05-07T14:22:19;2.72;;;2.40;;
28304;SDS011;15569;42.652;23.040;2023-05-07T14:24:48;3.77;;;2.93;;
28304;SDS011;15569;42.652;23.040;2023-05-07T14:27:14;4.50;;;3.00;;
28304;SDS011;15569;42.652;23.040;2023-05-07T14:29:40;4.40;;;3.20;;
28304;SDS011;15569;42.652;23.040;2023-05-07T14:32:06;4.30;;;2.88;;
28304;SDS011;15569;42.652;23.040;2023-05-07T14:34:31;6.15;;;4.15;;
28304;SDS011;15569;42.652;23.040;2023-05-07T14:36:57;10.85;;;3.47;;
28304;SDS011;15569;42.652;23.040;2023-05-07T14:39:23;3.50;;;3.20;;
28304;SDS011;15569;42.652;23.040;2023-05-07T14:41:48;6.90;;;2.80;;
28304;SDS011;15569;42.652;23.040;2023-05-07T14:44:14;15.43;;;2.95;;
28304;SDS011;15569;42.652;23.040;2023-05-07T14:46:39;5.75;;;2.72;;
28304;SDS011;15569;42.652;23.040;2023-05-07T14:49:05;6.95;;;3.03;;
28304;SDS011;15569;42.652;23.040;2023-05-07T14:51:32;2.80;;;2.60;;
28304;SDS011;15569;42.652;23.040;2023-05-07T14:53:57;7.40;;;4.15;;
28304;SDS011;15569;42.652;23.040;2023-05-07T14:56:23;3.25;;;2.58;;